sensor_id;sensor_type;location;lat;lon;timestamp;P1;durP1;ratioP1;P2;durP2;ratioP2
33270;SDS011;53180;51.344;6.152;2022-07-22T00:02:08;3.72;;;2.58;;
33270;SDS011;53180;51.344;6.152;2022-07-22T00:04:36;3.70;;;2.63;;
33270;SDS011;53180;51.344;6.152;2022-07-22T00:07:05;5.13;;;3.30;;
33270;SDS011;53180;51.344;6.152;2022-07-22T00:09:33;6.82;;;2.90;;
33270;SDS011;53180;51.344;6.152;2022-07-22T00:12:02;2.90;;;2.60;;
33270;SDS011;53180;51.344;6.152;2022-07-22T00:14:32;4.72;;;2.70;;
33270;SDS011;53180;51.344;6.152;2022-07-22T00:17:01;3.25;;;2.88;;
33270;SDS011;53180;51.344;6.152;2022-07-22T00:19:29;3.50;;;2.75;;
33270;SDS011;53180;51.344;6.152;2022-07-22T00:21:57;5.45;;;2.90;;
33270;SDS011;53180;51.344;6.152;2022-07-22T00:24:26;2.88;;;2.60;;
33270;SDS011;53180;51.344;6.152;2022-07-22T00:26:54;5.53;;;2.40;;
33270;SDS011;53180;51.344;6.152;2022-07-22T00:29:23;6.03;;;2.95;;
33270;SDS011;53180;51.344;6.152;2022-07-22T00:31:52;4.13;;;2.40;;
33270;SDS011;53180;51.344;6.152;2022-07-22T00:34:21;2.85;;;2.40;;
33270;SDS011;53180;51.344;6.152;2022-07-22T00:36:49;3.90;;;2.47;;
33270;SDS011;53180;51.344;6.152;2022-07-22T00:39:17;5.15;;;2.38;;
33270;SDS011;53180;51.344;6.152;2022-07-22T00:41:48;3.13;;;2.42;;
33270;SDS011;53180;51.344;6.152;2022-07-22T00:44:17;3.90;;;2.70;;
33270;SDS011;53180;51.344;6.152;2022-07-22T00:46:46;4.13;;;2.47;;
33270;SDS011;53180;51.344;6.152;2022-07-22T00:49:16;4.18;;;2.45;;
33270;SDS011;53180;51.344;6.152;2022-07-22T00:51:44;2.70;;;2.47;;
33270;SDS011;53180;51.344;6.152;2022-07-22T00:54:14;5.60;;;3.08;;
33270;SDS011;53180;51.344;6.152;2022-07-22T00:56:42;2.65;;;2.35;;
33270;SDS011;53180;51.344;6.152;2022-07-22T00:59:11;3.65;;;2.42;;
33270;SDS011;53180;51.344;6.152;2022-07-22T01:01:40;2.53;;;2.33;;
33270;SDS011;53180;51.344;6.152;2022-07-22T01:04:09;3.20;;;2.70;;
33270;SDS011;53180;51.344;6.152;2022-07-22T01:06:39;2.65;;;2.33;;
33270;SDS011;53180;51.344;6.152;2022-07-22T01:09:11;4.25;;;2.95;;
33270;SDS011;53180;51.344;6.152;2022-07-22T01:11:40;4.63;;;2.97;;
33270;SDS011;53180;51.344;6.152;2022-07-22T01:14:09;3.03;;;2.65;;
33270;SDS011;53180;51.344;6.152;2022-07-22T01:16:37;4.75;;;2.72;;
33270;SDS011;53180;51.344;6.152;2022-07-22T01:19:10;4.30;;;3.13;;
33270;SDS011;53180;51.344;6.152;2022-07-22T01:21:40;3.95;;;2.72;;
33270;SDS011;53180;51.344;6.152;2022-07-22T01:24:09;6.68;;;2.58;;
33270;SDS011;53180;51.344;6.152;2022-07-22T01:26:37;3.33;;;2.50;;
33270;SDS011;53180;51.344;6.152;2022-07-22T01:29:06;8.35;;;2.80;;
33270;SDS011;53180;51.344;6.152;2022-07-22T01:31:35;2.88;;;2.47;;
33270;SDS011;53180;51.344;6.152;2022-07-22T01:34:03;2.50;;;2.30;;
33270;SDS011;53180;51.344;6.152;2022-07-22T01:36:32;3.60;;;2.80;;
33270;SDS011;53180;51.344;6.152;2022-07-22T01:39:02;3.10;;;2.65;;
33270;SDS011;53180;51.344;6.152;2022-07-22T01:41:31;4.65;;;2.90;;
33270;SDS011;53180;51.344;6.152;2022-07-22T01:43:59;3.40;;;2.78;;
33270;SDS011;53180;51.344;6.152;2022-07-22T01:46:28;4.00;;;2.45;;
33270;SDS011;53180;51.344;6.152;2022-07-22T01:48:56;3.67;;;2.58;;
33270;SDS011;53180;51.344;6.152;2022-07-22T01:51:25;4.65;;;2.80;;
33270;SDS011;53180;51.344;6.152;2022-07-22T01:53:54;4.45;;;2.70;;
33270;SDS011;53180;51.344;6.152;2022-07-22T01:56:24;5.60;;;3.10;;
33270;SDS011;53180;51.344;6.152;2022-07-22T01:58:52;3.40;;;2.83;;
33270;SDS011;53180;51.344;6.152;2022-07-22T02:01:21;3.75;;;2.78;;
33270;SDS011;53180;51.344;6.152;2022-07-22T02:03:51;7.90;;;2.58;;
33270;SDS011;53180;51.344;6.152;2022-07-22T02:06:19;3.20;;;2.55;;
33270;SDS011;53180;51.344;6.152;2022-07-22T02:08:47;4.40;;;2.88;;
33270;SDS011;53180;51.344;6.152;2022-07-22T02:11:16;4.07;;;2.67;;
33270;SDS011;53180;51.344;6.152;2022-07-22T02:13:45;3.28;;;2.45;;
33270;SDS011;53180;51.344;6.152;2022-07-22T02:16:14;2.90;;;2.60;;
33270;SDS011;53180;51.344;6.152;2022-07-22T02:18:45;5.78;;;2.28;;
33270;SDS011;53180;51.344;6.152;2022-07-22T02:21:14;2.42;;;2.22;;
33270;SDS011;53180;51.344;6.152;2022-07-22T02:23:42;4.43;;;2.65;;
33270;SDS011;53180;51.344;6.152;2022-07-22T02:26:10;2.97;;;2.25;;
33270;SDS011;53180;51.344;6.152;2022-07-22T02:28:39;2.92;;;2.28;;
33270;SDS011;53180;51.344;6.152;2022-07-22T02:31:09;2.75;;;2.28;;
33270;SDS011;53180;51.344;6.152;2022-07-22T02:33:37;3.28;;;2.30;;
33270;SDS011;53180;51.344;6.152;2022-07-22T02:36:05;3.33;;;2.80;;
33270;SDS011;53180;51.344;6.152;2022-07-22T02:38:34;4.75;;;2.80;;
33270;SDS011;53180;51.344;6.152;2022-07-22T02:41:03;3.13;;;2.60;;
33270;SDS011;53180;51.344;6.152;2022-07-22T02:43:31;6.35;;;2.63;;
33270;SDS011;53180;51.344;6.152;2022-07-22T02:46:00;2.92;;;2.58;;
33270;SDS011;53180;51.344;6.152;2022-07-22T02:48:30;4.22;;;2.88;;
33270;SDS011;53180;51.344;6.152;2022-07-22T02:50:59;3.80;;;2.78;;
33270;SDS011;53180;51.344;6.152;2022-07-22T02:53:28;3.13;;;2.42;;
33270;SDS011;53180;51.344;6.152;2022-07-22T02:55:56;3.58;;;2.53;;
33270;SDS011;53180;51.344;6.152;2022-07-22T02:58:25;4.03;;;2.97;;
33270;SDS011;53180;51.344;6.152;2022-07-22T03:00:53;3.40;;;2.42;;
33270;SDS011;53180;51.344;6.152;2022-07-22T03:03:22;4.28;;;2.72;;
33270;SDS011;53180;51.344;6.152;2022-07-22T03:05:52;3.90;;;2.67;;
33270;SDS011;53180;51.344;6.152;2022-07-22T03:08:21;3.80;;;2.55;;
33270;SDS011;53180;51.344;6.152;2022-07-22T03:10:49;5.35;;;2.65;;
33270;SDS011;53180;51.344;6.152;2022-07-22T03:13:17;4.55;;;2.90;;
33270;SDS011;53180;51.344;6.152;2022-07-22T03:15:46;4.05;;;2.60;;
33270;SDS011;53180;51.344;6.152;2022-07-22T03:18:14;2.85;;;2.50;;
33270;SDS011;53180;51.344;6.152;2022-07-22T03:20:42;3.38;;;2.35;;
33270;SDS011;53180;51.344;6.152;2022-07-22T03:23:12;4.00;;;2.63;;
33270;SDS011;53180;51.344;6.152;2022-07-22T03:25:40;4.32;;;2.80;;
33270;SDS011;53180;51.344;6.152;2022-07-22T03:28:09;3.95;;;2.92;;
33270;SDS011;53180;51.344;6.152;2022-07-22T03:30:37;2.67;;;2.30;;
33270;SDS011;53180;51.344;6.152;2022-07-22T03:33:05;3.92;;;2.70;;
33270;SDS011;53180;51.344;6.152;2022-07-22T03:35:34;2.47;;;2.20;;
33270;SDS011;53180;51.344;6.152;2022-07-22T03:38:02;4.20;;;2.85;;
33270;SDS011;53180;51.344;6.152;2022-07-22T03:40:32;4.00;;;3.00;;
33270;SDS011;53180;51.344;6.152;2022-07-22T03:43:00;5.22;;;2.50;;
33270;SDS011;53180;51.344;6.152;2022-07-22T03:45:29;5.22;;;2.80;;
33270;SDS011;53180;51.344;6.152;2022-07-22T03:47:57;4.18;;;2.35;;
33270;SDS011;53180;51.344;6.152;2022-07-22T03:50:25;3.38;;;2.60;;
33270;SDS011;53180;51.344;6.152;2022-07-22T03:52:54;3.00;;;2.70;;
33270;SDS011;53180;51.344;6.152;2022-07-22T03:55:22;3.33;;;2.70;;
33270;SDS011;53180;51.344;6.152;2022-07-22T03:57:52;5.43;;;2.47;;
33270;SDS011;53180;51.344;6.152;2022-07-22T04:00:20;2.40;;;2.17;;
33270;SDS011;53180;51.344;6.152;2022-07-22T04:02:49;2.88;;;2.58;;
33270;SDS011;53180;51.344;6.152;2022-07-22T04:05:17;2.67;;;2.20;;
33270;SDS011;53180;51.344;6.152;2022-07-22T04:07:46;2.83;;;1.98;;
33270;SDS011;53180;51.344;6.152;2022-07-22T04:10:14;2.38;;;2.15;;
33270;SDS011;53180;51.344;6.152;2022-07-22T04:12:42;3.22;;;2.38;;
33270;SDS011;53180;51.344;6.152;2022-07-22T04:15:12;4.15;;;2.35;;
33270;SDS011;53180;51.344;6.152;2022-07-22T04:17:41;3.40;;;2.20;;
33270;SDS011;53180;51.344;6.152;2022-07-22T04:20:09;5.68;;;2.20;;
33270;SDS011;53180;51.344;6.152;2022-07-22T04:22:38;2.50;;;1.75;;
33270;SDS011;53180;51.344;6.152;2022-07-22T04:25:07;2.58;;;2.13;;
33270;SDS011;53180;51.344;6.152;2022-07-22T04:27:36;4.20;;;2.30;;
33270;SDS011;53180;51.344;6.152;2022-07-22T04:30:04;2.97;;;1.88;;
33270;SDS011;53180;51.344;6.152;2022-07-22T04:32:36;2.17;;;1.98;;
33270;SDS011;53180;51.344;6.152;2022-07-22T04:35:05;7.80;;;2.20;;
33270;SDS011;53180;51.344;6.152;2022-07-22T04:37:34;5.35;;;2.47;;
33270;SDS011;53180;51.344;6.152;2022-07-22T04:40:03;3.22;;;2.10;;
33270;SDS011;53180;51.344;6.152;2022-07-22T04:42:34;7.00;;;4.15;;
33270;SDS011;53180;51.344;6.152;2022-07-22T04:45:02;2.25;;;2.05;;
33270;SDS011;53180;51.344;6.152;2022-07-22T04:47:32;5.13;;;2.22;;
33270;SDS011;53180;51.344;6.152;2022-07-22T04:50:02;2.63;;;1.95;;
33270;SDS011;53180;51.344;6.152;2022-07-22T04:52:31;3.03;;;1.75;;
33270;SDS011;53180;51.344;6.152;2022-07-22T04:55:00;2.85;;;1.83;;
33270;SDS011;53180;51.344;6.152;2022-07-22T04:57:29;2.08;;;1.92;;
33270;SDS011;53180;51.344;6.152;2022-07-22T04:59:57;7.53;;;1.80;;
33270;SDS011;53180;51.344;6.152;2022-07-22T05:02:25;2.13;;;1.92;;
33270;SDS011;53180;51.344;6.152;2022-07-22T05:04:54;2.10;;;1.90;;
33270;SDS011;53180;51.344;6.152;2022-07-22T05:07:27;2.20;;;1.98;;
33270;SDS011;53180;51.344;6.152;2022-07-22T05:09:56;3.08;;;2.20;;
33270;SDS011;53180;51.344;6.152;2022-07-22T05:12:24;5.13;;;1.77;;
33270;SDS011;53180;51.344;6.152;2022-07-22T05:14:53;2.08;;;1.67;;
33270;SDS011;53180;51.344;6.152;2022-07-22T05:17:21;3.42;;;1.98;;
33270;SDS011;53180;51.344;6.152;2022-07-22T05:19:51;2.33;;;1.90;;
33270;SDS011;53180;51.344;6.152;2022-07-22T05:22:20;5.40;;;2.25;;
33270;SDS011;53180;51.344;6.152;2022-07-22T05:24:50;3.13;;;2.10;;
33270;SDS011;53180;51.344;6.152;2022-07-22T05:27:18;2.88;;;1.90;;
33270;SDS011;53180;51.344;6.152;2022-07-22T05:29:46;2.85;;;1.88;;
33270;SDS011;53180;51.344;6.152;2022-07-22T05:32:15;2.25;;;2.05;;
33270;SDS011;53180;51.344;6.152;2022-07-22T05:34:43;2.58;;;2.08;;
33270;SDS011;53180;51.344;6.152;2022-07-22T05:37:12;3.53;;;1.80;;
33270;SDS011;53180;51.344;6.152;2022-07-22T05:39:42;2.45;;;2.08;;
33270;SDS011;53180;51.344;6.152;2022-07-22T05:42:12;2.45;;;2.13;;
33270;SDS011;53180;51.344;6.152;2022-07-22T05:44:40;2.55;;;1.98;;
33270;SDS011;53180;51.344;6.152;2022-07-22T05:47:08;2.35;;;2.00;;
33270;SDS011;53180;51.344;6.152;2022-07-22T05:49:37;4.65;;;2.10;;
33270;SDS011;53180;51.344;6.152;2022-07-22T05:52:10;2.78;;;2.03;;
33270;SDS011;53180;51.344;6.152;2022-07-22T05:54:39;2.45;;;1.92;;
33270;SDS011;53180;51.344;6.152;2022-07-22T05:57:07;2.90;;;1.92;;
33270;SDS011;53180;51.344;6.152;2022-07-22T05:59:37;3.10;;;2.20;;
33270;SDS011;53180;51.344;6.152;2022-07-22T06:02:07;2.60;;;2.00;;
33270;SDS011;53180;51.344;6.152;2022-07-22T06:04:36;3.67;;;2.03;;
33270;SDS011;53180;51.344;6.152;2022-07-22T06:07:05;2.90;;;1.92;;
33270;SDS011;53180;51.344;6.152;2022-07-22T06:09:33;4.68;;;2.30;;
33270;SDS011;53180;51.344;6.152;2022-07-22T06:12:02;4.55;;;2.10;;
33270;SDS011;53180;51.344;6.152;2022-07-22T06:14:31;2.10;;;1.90;;
33270;SDS011;53180;51.344;6.152;2022-07-22T06:17:01;2.45;;;1.92;;
33270;SDS011;53180;51.344;6.152;2022-07-22T06:19:30;2.22;;;1.85;;
33270;SDS011;53180;51.344;6.152;2022-07-22T06:21:58;1.92;;;1.50;;
33270;SDS011;53180;51.344;6.152;2022-07-22T06:24:27;3.70;;;2.10;;
33270;SDS011;53180;51.344;6.152;2022-07-22T06:26:55;2.20;;;1.92;;
33270;SDS011;53180;51.344;6.152;2022-07-22T06:29:23;3.63;;;1.70;;
33270;SDS011;53180;51.344;6.152;2022-07-22T06:31:52;3.30;;;2.05;;
33270;SDS011;53180;51.344;6.152;2022-07-22T06:34:22;2.28;;;1.95;;
33270;SDS011;53180;51.344;6.152;2022-07-22T06:36:51;2.10;;;1.63;;
33270;SDS011;53180;51.344;6.152;2022-07-22T06:39:19;3.70;;;1.90;;
33270;SDS011;53180;51.344;6.152;2022-07-22T06:41:47;3.05;;;1.58;;
33270;SDS011;53180;51.344;6.152;2022-07-22T06:44:16;6.18;;;1.65;;
33270;SDS011;53180;51.344;6.152;2022-07-22T06:46:45;2.10;;;1.75;;
33270;SDS011;53180;51.344;6.152;2022-07-22T06:49:14;1.92;;;1.48;;
33270;SDS011;53180;51.344;6.152;2022-07-22T06:51:45;5.68;;;1.50;;
33270;SDS011;53180;51.344;6.152;2022-07-22T06:54:13;2.17;;;1.60;;
33270;SDS011;53180;51.344;6.152;2022-07-22T06:56:42;1.58;;;1.30;;
33270;SDS011;53180;51.344;6.152;2022-07-22T06:59:10;2.15;;;1.58;;
33270;SDS011;53180;51.344;6.152;2022-07-22T07:01:38;2.97;;;1.40;;
33270;SDS011;53180;51.344;6.152;2022-07-22T07:04:07;4.55;;;1.50;;
33270;SDS011;53180;51.344;6.152;2022-07-22T07:06:35;2.45;;;1.35;;
33270;SDS011;53180;51.344;6.152;2022-07-22T07:09:05;4.57;;;1.20;;
33270;SDS011;53180;51.344;6.152;2022-07-22T07:11:34;2.17;;;1.50;;
33270;SDS011;53180;51.344;6.152;2022-07-22T07:14:03;1.67;;;1.20;;
33270;SDS011;53180;51.344;6.152;2022-07-22T07:16:32;1.58;;;1.30;;
33270;SDS011;53180;51.344;6.152;2022-07-22T07:19:00;1.55;;;1.38;;
33270;SDS011;53180;51.344;6.152;2022-07-22T07:21:29;1.40;;;1.13;;
33270;SDS011;53180;51.344;6.152;2022-07-22T07:23:58;7.03;;;1.58;;
33270;SDS011;53180;51.344;6.152;2022-07-22T07:26:29;5.57;;;1.20;;
33270;SDS011;53180;51.344;6.152;2022-07-22T07:28:57;2.75;;;1.42;;
33270;SDS011;53180;51.344;6.152;2022-07-22T07:31:26;1.95;;;1.20;;
33270;SDS011;53180;51.344;6.152;2022-07-22T07:33:55;7.70;;;1.50;;
33270;SDS011;53180;51.344;6.152;2022-07-22T07:36:24;1.55;;;0.93;;
33270;SDS011;53180;51.344;6.152;2022-07-22T07:38:52;5.60;;;1.40;;
33270;SDS011;53180;51.344;6.152;2022-07-22T07:41:21;2.72;;;1.40;;
33270;SDS011;53180;51.344;6.152;2022-07-22T07:43:51;4.63;;;1.80;;
33270;SDS011;53180;51.344;6.152;2022-07-22T07:46:19;4.28;;;1.50;;
33270;SDS011;53180;51.344;6.152;2022-07-22T07:48:48;3.30;;;0.98;;
33270;SDS011;53180;51.344;6.152;2022-07-22T07:51:16;2.67;;;0.82;;
33270;SDS011;53180;51.344;6.152;2022-07-22T07:53:45;3.20;;;0.88;;
33270;SDS011;53180;51.344;6.152;2022-07-22T07:56:13;4.63;;;1.20;;
33270;SDS011;53180;51.344;6.152;2022-07-22T07:58:42;1.40;;;0.88;;
33270;SDS011;53180;51.344;6.152;2022-07-22T08:01:31;4.30;;;0.90;;
33270;SDS011;53180;51.344;6.152;2022-07-22T08:04:20;1.75;;;0.90;;
33270;SDS011;53180;51.344;6.152;2022-07-22T08:07:00;3.00;;;0.98;;
33270;SDS011;53180;51.344;6.152;2022-07-22T08:09:28;2.10;;;0.85;;
33270;SDS011;53180;51.344;6.152;2022-07-22T08:11:57;1.45;;;0.63;;
33270;SDS011;53180;51.344;6.152;2022-07-22T08:14:25;3.10;;;0.60;;
33270;SDS011;53180;51.344;6.152;2022-07-22T08:16:55;1.13;;;0.75;;
33270;SDS011;53180;51.344;6.152;2022-07-22T08:19:24;7.03;;;1.00;;
33270;SDS011;53180;51.344;6.152;2022-07-22T08:21:53;1.98;;;0.90;;
33270;SDS011;53180;51.344;6.152;2022-07-22T08:24:21;4.95;;;1.05;;
33270;SDS011;53180;51.344;6.152;2022-07-22T08:26:49;2.00;;;0.90;;
33270;SDS011;53180;51.344;6.152;2022-07-22T08:29:18;5.65;;;1.15;;
33270;SDS011;53180;51.344;6.152;2022-07-22T08:31:46;2.22;;;0.75;;
33270;SDS011;53180;51.344;6.152;2022-07-22T08:34:16;2.40;;;1.02;;
33270;SDS011;53180;51.344;6.152;2022-07-22T08:36:44;0.95;;;0.73;;
33270;SDS011;53180;51.344;6.152;2022-07-22T08:39:13;2.50;;;0.90;;
33270;SDS011;53180;51.344;6.152;2022-07-22T08:41:48;1.50;;;0.80;;
33270;SDS011;53180;51.344;6.152;2022-07-22T08:44:17;4.32;;;1.00;;
33270;SDS011;53180;51.344;6.152;2022-07-22T08:46:46;0.70;;;0.68;;
33270;SDS011;53180;51.344;6.152;2022-07-22T08:49:16;2.65;;;0.90;;
33270;SDS011;53180;51.344;6.152;2022-07-22T08:51:44;1.00;;;0.60;;
33270;SDS011;53180;51.344;6.152;2022-07-22T08:54:13;2.60;;;1.00;;
33270;SDS011;53180;51.344;6.152;2022-07-22T08:56:41;1.02;;;0.82;;
33270;SDS011;53180;51.344;6.152;2022-07-22T08:59:14;2.67;;;0.93;;
33270;SDS011;53180;51.344;6.152;2022-07-22T09:04:30;1.48;;;0.80;;
33270;SDS011;53180;51.344;6.152;2022-07-22T09:06:59;3.90;;;0.90;;
33270;SDS011;53180;51.344;6.152;2022-07-22T09:09:31;1.05;;;0.73;;
33270;SDS011;53180;51.344;6.152;2022-07-22T09:12:04;1.40;;;1.00;;
33270;SDS011;53180;51.344;6.152;2022-07-22T09:14:44;0.70;;;0.70;;
33270;SDS011;53180;51.344;6.152;2022-07-22T09:17:23;2.63;;;1.10;;
33270;SDS011;53180;51.344;6.152;2022-07-22T09:19:55;0.93;;;0.63;;
33270;SDS011;53180;51.344;6.152;2022-07-22T09:22:36;3.30;;;0.75;;
33270;SDS011;53180;51.344;6.152;2022-07-22T09:25:19;0.80;;;0.60;;
33270;SDS011;53180;51.344;6.152;2022-07-22T09:28:08;2.08;;;1.10;;
33270;SDS011;53180;51.344;6.152;2022-07-22T09:30:46;2.22;;;1.25;;
33270;SDS011;53180;51.344;6.152;2022-07-22T09:33:18;1.48;;;0.70;;
33270;SDS011;53180;51.344;6.152;2022-07-22T09:35:50;3.63;;;0.80;;
33270;SDS011;53180;51.344;6.152;2022-07-22T09:38:20;1.08;;;0.80;;
33270;SDS011;53180;51.344;6.152;2022-07-22T09:40:55;1.35;;;0.85;;
33270;SDS011;53180;51.344;6.152;2022-07-22T09:43:26;4.60;;;0.95;;
33270;SDS011;53180;51.344;6.152;2022-07-22T09:45:59;3.08;;;0.88;;
33270;SDS011;53180;51.344;6.152;2022-07-22T09:48:27;1.70;;;0.88;;
33270;SDS011;53180;51.344;6.152;2022-07-22T09:50:57;1.63;;;0.95;;
33270;SDS011;53180;51.344;6.152;2022-07-22T09:53:27;2.10;;;0.98;;
33270;SDS011;53180;51.344;6.152;2022-07-22T09:55:58;1.77;;;1.02;;
33270;SDS011;53180;51.344;6.152;2022-07-22T09:58:28;3.30;;;0.80;;
33270;SDS011;53180;51.344;6.152;2022-07-22T10:00:59;1.13;;;0.80;;
33270;SDS011;53180;51.344;6.152;2022-07-22T10:03:32;2.35;;;1.10;;
33270;SDS011;53180;51.344;6.152;2022-07-22T10:06:05;1.85;;;1.05;;
33270;SDS011;53180;51.344;6.152;2022-07-22T10:08:34;4.75;;;1.23;;
33270;SDS011;53180;51.344;6.152;2022-07-22T10:11:04;1.58;;;0.90;;
33270;SDS011;53180;51.344;6.152;2022-07-22T10:13:34;1.58;;;1.02;;
33270;SDS011;53180;51.344;6.152;2022-07-22T10:16:07;1.55;;;0.85;;
33270;SDS011;53180;51.344;6.152;2022-07-22T10:18:36;2.50;;;0.98;;
33270;SDS011;53180;51.344;6.152;2022-07-22T10:21:07;0.80;;;0.75;;
33270;SDS011;53180;51.344;6.152;2022-07-22T10:23:42;2.90;;;1.20;;
33270;SDS011;53180;51.344;6.152;2022-07-22T10:26:47;2.10;;;1.10;;
33270;SDS011;53180;51.344;6.152;2022-07-22T10:29:28;1.30;;;0.98;;
33270;SDS011;53180;51.344;6.152;2022-07-22T10:37:54;1.30;;;0.80;;
33270;SDS011;53180;51.344;6.152;2022-07-22T10:40:28;6.25;;;1.10;;
33270;SDS011;53180;51.344;6.152;2022-07-22T10:43:10;5.40;;;1.20;;
33270;SDS011;53180;51.344;6.152;2022-07-22T10:45:40;5.35;;;0.98;;
33270;SDS011;53180;51.344;6.152;2022-07-22T10:48:13;2.90;;;0.98;;
33270;SDS011;53180;51.344;6.152;2022-07-22T10:50:45;0.90;;;0.80;;
33270;SDS011;53180;51.344;6.152;2022-07-22T10:53:20;3.03;;;1.63;;
33270;SDS011;53180;51.344;6.152;2022-07-22T10:56:00;1.58;;;1.20;;
33270;SDS011;53180;51.344;6.152;2022-07-22T10:58:48;2.13;;;1.00;;
33270;SDS011;53180;51.344;6.152;2022-07-22T11:01:20;1.77;;;1.10;;
33270;SDS011;53180;51.344;6.152;2022-07-22T11:03:51;1.65;;;0.82;;
33270;SDS011;53180;51.344;6.152;2022-07-22T11:06:25;3.03;;;0.93;;
33270;SDS011;53180;51.344;6.152;2022-07-22T11:08:57;5.32;;;1.00;;
33270;SDS011;53180;51.344;6.152;2022-07-22T11:11:37;8.05;;;1.33;;
33270;SDS011;53180;51.344;6.152;2022-07-22T11:14:12;2.10;;;1.08;;
33270;SDS011;53180;51.344;6.152;2022-07-22T11:16:44;3.35;;;1.00;;
33270;SDS011;53180;51.344;6.152;2022-07-22T11:21:49;1.10;;;0.82;;
33270;SDS011;53180;51.344;6.152;2022-07-22T11:24:20;1.35;;;0.93;;
33270;SDS011;53180;51.344;6.152;2022-07-22T11:26:51;2.08;;;1.00;;
33270;SDS011;53180;51.344;6.152;2022-07-22T11:29:29;2.05;;;0.90;;
33270;SDS011;53180;51.344;6.152;2022-07-22T11:32:04;2.25;;;1.00;;
33270;SDS011;53180;51.344;6.152;2022-07-22T11:34:35;1.17;;;0.90;;
33270;SDS011;53180;51.344;6.152;2022-07-22T11:37:08;1.70;;;1.20;;
33270;SDS011;53180;51.344;6.152;2022-07-22T11:39:37;1.52;;;1.10;;
33270;SDS011;53180;51.344;6.152;2022-07-22T11:42:07;2.10;;;1.23;;
33270;SDS011;53180;51.344;6.152;2022-07-22T11:44:36;1.40;;;1.00;;
33270;SDS011;53180;51.344;6.152;2022-07-22T11:47:06;3.10;;;1.45;;
33270;SDS011;53180;51.344;6.152;2022-07-22T11:49:37;2.03;;;0.90;;
33270;SDS011;53180;51.344;6.152;2022-07-22T11:52:07;3.33;;;1.35;;
33270;SDS011;53180;51.344;6.152;2022-07-22T11:54:39;1.70;;;1.08;;
33270;SDS011;53180;51.344;6.152;2022-07-22T11:57:11;1.58;;;1.05;;
33270;SDS011;53180;51.344;6.152;2022-07-22T11:59:40;2.08;;;1.30;;
33270;SDS011;53180;51.344;6.152;2022-07-22T12:02:09;5.43;;;1.17;;
33270;SDS011;53180;51.344;6.152;2022-07-22T12:04:40;3.17;;;1.13;;
33270;SDS011;53180;51.344;6.152;2022-07-22T12:07:11;3.05;;;1.27;;
33270;SDS011;53180;51.344;6.152;2022-07-22T12:09:40;2.25;;;1.25;;
33270;SDS011;53180;51.344;6.152;2022-07-22T12:12:10;3.30;;;1.40;;
33270;SDS011;53180;51.344;6.152;2022-07-22T12:14:44;4.47;;;1.33;;
33270;SDS011;53180;51.344;6.152;2022-07-22T12:17:14;2.20;;;1.48;;
33270;SDS011;53180;51.344;6.152;2022-07-22T12:19:43;2.60;;;1.17;;
33270;SDS011;53180;51.344;6.152;2022-07-22T12:22:12;3.33;;;1.30;;
33270;SDS011;53180;51.344;6.152;2022-07-22T12:24:57;2.65;;;1.20;;
33270;SDS011;53180;51.344;6.152;2022-07-22T12:27:30;3.67;;;1.55;;
33270;SDS011;53180;51.344;6.152;2022-07-22T12:29:58;2.03;;;1.38;;
33270;SDS011;53180;51.344;6.152;2022-07-22T12:32:27;3.83;;;1.52;;
33270;SDS011;53180;51.344;6.152;2022-07-22T12:34:57;2.85;;;1.25;;
33270;SDS011;53180;51.344;6.152;2022-07-22T12:37:28;2.13;;;1.30;;
33270;SDS011;53180;51.344;6.152;2022-07-22T12:39:59;2.75;;;1.33;;
33270;SDS011;53180;51.344;6.152;2022-07-22T12:42:32;2.97;;;1.75;;
33270;SDS011;53180;51.344;6.152;2022-07-22T12:45:04;1.45;;;0.98;;
33270;SDS011;53180;51.344;6.152;2022-07-22T12:47:38;2.15;;;1.08;;
33270;SDS011;53180;51.344;6.152;2022-07-22T12:50:17;3.05;;;1.42;;
33270;SDS011;53180;51.344;6.152;2022-07-22T12:52:48;2.20;;;1.50;;
33270;SDS011;53180;51.344;6.152;2022-07-22T12:55:39;7.40;;;1.77;;
33270;SDS011;53180;51.344;6.152;2022-07-22T12:58:11;3.83;;;1.40;;
33270;SDS011;53180;51.344;6.152;2022-07-22T13:00:42;4.90;;;1.20;;
33270;SDS011;53180;51.344;6.152;2022-07-22T13:03:12;2.30;;;1.25;;
33270;SDS011;53180;51.344;6.152;2022-07-22T13:05:41;2.78;;;1.52;;
33270;SDS011;53180;51.344;6.152;2022-07-22T13:08:10;2.88;;;1.50;;
33270;SDS011;53180;51.344;6.152;2022-07-22T13:10:38;6.00;;;1.55;;
33270;SDS011;53180;51.344;6.152;2022-07-22T13:13:07;2.25;;;1.38;;
33270;SDS011;53180;51.344;6.152;2022-07-22T13:15:37;3.38;;;1.45;;
33270;SDS011;53180;51.344;6.152;2022-07-22T13:18:06;1.85;;;1.00;;
33270;SDS011;53180;51.344;6.152;2022-07-22T13:20:34;1.80;;;1.30;;
33270;SDS011;53180;51.344;6.152;2022-07-22T13:23:03;3.95;;;1.70;;
33270;SDS011;53180;51.344;6.152;2022-07-22T13:25:31;4.05;;;1.50;;
33270;SDS011;53180;51.344;6.152;2022-07-22T13:28:00;2.28;;;1.52;;
33270;SDS011;53180;51.344;6.152;2022-07-22T13:30:29;2.85;;;1.52;;
33270;SDS011;53180;51.344;6.152;2022-07-22T13:32:59;3.00;;;1.73;;
33270;SDS011;53180;51.344;6.152;2022-07-22T13:35:27;1.95;;;1.52;;
33270;SDS011;53180;51.344;6.152;2022-07-22T13:37:56;6.85;;;1.67;;
33270;SDS011;53180;51.344;6.152;2022-07-22T13:40:25;2.53;;;1.65;;
33270;SDS011;53180;51.344;6.152;2022-07-22T13:42:54;8.00;;;1.60;;
33270;SDS011;53180;51.344;6.152;2022-07-22T13:45:22;5.70;;;1.30;;
33270;SDS011;53180;51.344;6.152;2022-07-22T13:47:50;2.55;;;1.20;;
33270;SDS011;53180;51.344;6.152;2022-07-22T13:50:20;4.20;;;1.48;;
33270;SDS011;53180;51.344;6.152;2022-07-22T13:52:48;5.77;;;1.97;;
33270;SDS011;53180;51.344;6.152;2022-07-22T13:55:17;1.92;;;1.20;;
33270;SDS011;53180;51.344;6.152;2022-07-22T13:57:45;3.90;;;2.00;;
33270;SDS011;53180;51.344;6.152;2022-07-22T14:00:14;7.97;;;1.80;;
33270;SDS011;53180;51.344;6.152;2022-07-22T14:02:43;4.53;;;1.42;;
33270;SDS011;53180;51.344;6.152;2022-07-22T14:05:12;2.85;;;1.35;;
33270;SDS011;53180;51.344;6.152;2022-07-22T14:07:42;3.17;;;1.60;;
33270;SDS011;53180;51.344;6.152;2022-07-22T14:10:11;2.88;;;1.15;;
33270;SDS011;53180;51.344;6.152;2022-07-22T14:12:41;6.07;;;1.60;;
33270;SDS011;53180;51.344;6.152;2022-07-22T14:15:09;1.70;;;1.20;;
33270;SDS011;53180;51.344;6.152;2022-07-22T14:17:41;2.97;;;1.40;;
33270;SDS011;53180;51.344;6.152;2022-07-22T14:20:11;5.75;;;1.20;;
33270;SDS011;53180;51.344;6.152;2022-07-22T14:22:39;1.88;;;1.23;;
33270;SDS011;53180;51.344;6.152;2022-07-22T14:25:09;3.88;;;1.73;;
33270;SDS011;53180;51.344;6.152;2022-07-22T14:27:37;3.90;;;1.48;;
33270;SDS011;53180;51.344;6.152;2022-07-22T14:30:06;2.20;;;1.30;;
33270;SDS011;53180;51.344;6.152;2022-07-22T14:32:35;5.35;;;1.73;;
33270;SDS011;53180;51.344;6.152;2022-07-22T14:35:04;3.97;;;1.45;;
33270;SDS011;53180;51.344;6.152;2022-07-22T14:37:33;3.78;;;1.10;;
33270;SDS011;53180;51.344;6.152;2022-07-22T14:40:02;2.35;;;1.10;;
33270;SDS011;53180;51.344;6.152;2022-07-22T14:42:33;2.00;;;1.15;;
33270;SDS011;53180;51.344;6.152;2022-07-22T14:45:01;4.85;;;1.40;;
33270;SDS011;53180;51.344;6.152;2022-07-22T14:47:34;2.42;;;1.30;;
33270;SDS011;53180;51.344;6.152;2022-07-22T14:50:04;2.58;;;1.10;;
33270;SDS011;53180;51.344;6.152;2022-07-22T14:52:33;5.72;;;1.30;;
33270;SDS011;53180;51.344;6.152;2022-07-22T14:55:02;8.10;;;1.33;;
33270;SDS011;53180;51.344;6.152;2022-07-22T14:57:33;4.72;;;1.50;;
33270;SDS011;53180;51.344;6.152;2022-07-22T15:00:02;2.30;;;1.23;;
33270;SDS011;53180;51.344;6.152;2022-07-22T15:02:31;1.95;;;1.00;;
33270;SDS011;53180;51.344;6.152;2022-07-22T15:05:00;1.38;;;1.00;;
33270;SDS011;53180;51.344;6.152;2022-07-22T15:07:28;4.82;;;1.20;;
33270;SDS011;53180;51.344;6.152;2022-07-22T15:09:56;2.75;;;1.20;;
33270;SDS011;53180;51.344;6.152;2022-07-22T15:12:25;2.67;;;1.10;;
33270;SDS011;53180;51.344;6.152;2022-07-22T15:15:14;2.95;;;1.13;;
33270;SDS011;53180;51.344;6.152;2022-07-22T15:17:43;3.17;;;1.23;;